sensor_id;sensor_type;location;lat;lon;timestamp;temperature;humidity
9901;DHT22;4989;48.772;9.154;2023-09-19T00:02:10;18.10;99.90
9901;DHT22;4989;48.772;9.154;2023-09-19T00:07:13;18.00;99.90
9901;DHT22;4989;48.772;9.154;2023-09-19T00:12:16;18.00;99.90
9901;DHT22;4989;48.772;9.154;2023-09-19T00:17:18;18.10;99.90
9901;DHT22;4989;48.772;9.154;2023-09-19T00:22:21;18.20;99.90
9901;DHT22;4989;48.772;9.154;2023-09-19T00:27:23;18.10;99.90
9901;DHT22;4989;48.772;9.154;2023-09-19T00:32:25;18.00;99.90
9901;DHT22;4989;48.772;9.154;2023-09-19T00:37:32;18.10;99.90
9901;DHT22;4989;48.772;9.154;2023-09-19T00:42:34;18.00;99.90
9901;DHT22;4989;48.772;9.154;2023-09-19T00:47:47;17.90;99.90
9901;DHT22;4989;48.772;9.154;2023-09-19T00:52:54;18.00;99.90
9901;DHT22;4989;48.772;9.154;2023-09-19T00:58:00;18.00;99.90
9901;DHT22;4989;48.772;9.154;2023-09-19T01:03:03;17.80;99.90
9901;DHT22;4989;48.772;9.154;2023-09-19T01:08:07;17.90;99.90
9901;DHT22;4989;48.772;9.154;2023-09-19T01:29:46;18.00;99.90
9901;DHT22;4989;48.772;9.154;2023-09-19T01:40:08;18.10;99.90
9901;DHT22;4989;48.772;9.154;2023-09-19T01:45:44;18.30;99.90
9901;DHT22;4989;48.772;9.154;2023-09-19T01:50:59;18.00;99.90
9901;DHT22;4989;48.772;9.154;2023-09-19T01:56:05;18.10;99.90
9901;DHT22;4989;48.772;9.154;2023-09-19T02:01:19;18.00;99.90
9901;DHT22;4989;48.772;9.154;2023-09-19T02:06:24;18.10;99.90
9901;DHT22;4989;48.772;9.154;2023-09-19T02:11:28;18.00;99.90
9901;DHT22;4989;48.772;9.154;2023-09-19T02:16:31;18.00;99.90
9901;DHT22;4989;48.772;9.154;2023-09-19T02:21:33;17.90;99.90
9901;DHT22;4989;48.772;9.154;2023-09-19T02:26:35;17.90;99.90
9901;DHT22;4989;48.772;9.154;2023-09-19T02:31:41;17.90;99.90
9901;DHT22;4989;48.772;9.154;2023-09-19T02:36:43;17.80;99.90
9901;DHT22;4989;48.772;9.154;2023-09-19T02:41:46;17.90;99.90
9901;DHT22;4989;48.772;9.154;2023-09-19T02:46:49;17.80;99.90
9901;DHT22;4989;48.772;9.154;2023-09-19T02:51:52;17.80;99.90
9901;DHT22;4989;48.772;9.154;2023-09-19T02:56:54;17.80;99.90
9901;DHT22;4989;48.772;9.154;2023-09-19T03:01:57;17.80;99.90
9901;DHT22;4989;48.772;9.154;2023-09-19T03:06:59;17.70;99.90
9901;DHT22;4989;48.772;9.154;2023-09-19T03:12:03;17.70;99.90
9901;DHT22;4989;48.772;9.154;2023-09-19T03:17:07;17.70;99.90
9901;DHT22;4989;48.772;9.154;2023-09-19T03:22:12;17.80;99.90
9901;DHT22;4989;48.772;9.154;2023-09-19T03:27:14;17.70;99.90
9901;DHT22;4989;48.772;9.154;2023-09-19T03:32:18;17.80;99.90
9901;DHT22;4989;48.772;9.154;2023-09-19T03:37:21;17.80;99.90
9901;DHT22;4989;48.772;9.154;2023-09-19T03:42:24;17.80;99.90
9901;DHT22;4989;48.772;9.154;2023-09-19T03:47:29;17.90;99.90
9901;DHT22;4989;48.772;9.154;2023-09-19T03:52:33;17.90;99.90
9901;DHT22;4989;48.772;9.154;2023-09-19T03:57:36;17.90;99.90
9901;DHT22;4989;48.772;9.154;2023-09-19T04:02:39;17.80;99.90
9901;DHT22;4989;48.772;9.154;2023-09-19T04:07:42;17.80;99.90
9901;DHT22;4989;48.772;9.154;2023-09-19T04:12:54;17.90;99.90
9901;DHT22;4989;48.772;9.154;2023-09-19T04:17:57;18.20;99.90
9901;DHT22;4989;48.772;9.154;2023-09-19T04:22:59;17.90;99.90
9901;DHT22;4989;48.772;9.154;2023-09-19T04:28:02;18.20;99.90
9901;DHT22;4989;48.772;9.154;2023-09-19T04:33:06;18.80;99.90
9901;DHT22;4989;48.772;9.154;2023-09-19T04:38:09;18.40;99.90
9901;DHT22;4989;48.772;9.154;2023-09-19T04:43:11;18.00;99.90
9901;DHT22;4989;48.772;9.154;2023-09-19T04:48:14;17.70;99.90
9901;DHT22;4989;48.772;9.154;2023-09-19T04:53:18;17.70;99.90
9901;DHT22;4989;48.772;9.154;2023-09-19T04:58:22;17.60;99.90
9901;DHT22;4989;48.772;9.154;2023-09-19T05:03:25;17.80;99.90
9901;DHT22;4989;48.772;9.154;2023-09-19T05:08:27;17.80;99.90
9901;DHT22;4989;48.772;9.154;2023-09-19T05:13:29;17.80;99.90
9901;DHT22;4989;48.772;9.154;2023-09-19T05:18:32;17.60;99.90
9901;DHT22;4989;48.772;9.154;2023-09-19T05:23:35;17.40;99.90
9901;DHT22;4989;48.772;9.154;2023-09-19T05:28:39;17.20;99.90
9901;DHT22;4989;48.772;9.154;2023-09-19T05:33:41;17.10;99.90
9901;DHT22;4989;48.772;9.154;2023-09-19T05:38:44;17.20;99.90
9901;DHT22;4989;48.772;9.154;2023-09-19T05:43:49;17.40;99.90
9901;DHT22;4989;48.772;9.154;2023-09-19T05:48:52;19.20;99.90
9901;DHT22;4989;48.772;9.154;2023-09-19T05:53:54;20.00;99.90
9901;DHT22;4989;48.772;9.154;2023-09-19T05:58:56;20.30;99.90
9901;DHT22;4989;48.772;9.154;2023-09-19T06:03:58;19.10;99.90
9901;DHT22;4989;48.772;9.154;2023-09-19T06:09:02;18.70;99.90
9901;DHT22;4989;48.772;9.154;2023-09-19T06:14:07;19.10;99.90
9901;DHT22;4989;48.772;9.154;2023-09-19T06:19:09;19.60;99.90
9901;DHT22;4989;48.772;9.154;2023-09-19T06:24:11;19.80;99.90
9901;DHT22;4989;48.772;9.154;2023-09-19T06:29:14;20.20;99.90
9901;DHT22;4989;48.772;9.154;2023-09-19T06:34:16;19.60;99.90
9901;DHT22;4989;48.772;9.154;2023-09-19T06:39:19;19.40;99.90
9901;DHT22;4989;48.772;9.154;2023-09-19T06:44:24;18.50;99.90
9901;DHT22;4989;48.772;9.154;2023-09-19T06:49:26;18.20;99.90
9901;DHT22;4989;48.772;9.154;2023-09-19T06:54:31;18.10;99.90
9901;DHT22;4989;48.772;9.154;2023-09-19T06:59:33;17.70;99.90
9901;DHT22;4989;48.772;9.154;2023-09-19T07:04:35;17.90;99.90
9901;DHT22;4989;48.772;9.154;2023-09-19T07:09:37;18.30;99.90
9901;DHT22;4989;48.772;9.154;2023-09-19T07:14:39;18.40;99.90
9901;DHT22;4989;48.772;9.154;2023-09-19T07:19:42;18.30;99.90
9901;DHT22;4989;48.772;9.154;2023-09-19T07:24:44;18.00;99.90
9901;DHT22;4989;48.772;9.154;2023-09-19T07:29:47;18.00;99.90
9901;DHT22;4989;48.772;9.154;2023-09-19T07:34:52;18.10;99.90
9901;DHT22;4989;48.772;9.154;2023-09-19T07:39:57;18.20;99.90
9901;DHT22;4989;48.772;9.154;2023-09-19T07:44:59;18.50;99.90
9901;DHT22;4989;48.772;9.154;2023-09-19T07:50:02;18.60;99.90
9901;DHT22;4989;48.772;9.154;2023-09-19T07:55:06;18.80;99.90
9901;DHT22;4989;48.772;9.154;2023-09-19T08:00:13;18.50;99.90
9901;DHT22;4989;48.772;9.154;2023-09-19T08:05:16;18.50;99.90
9901;DHT22;4989;48.772;9.154;2023-09-19T08:10:18;18.60;99.90
9901;DHT22;4989;48.772;9.154;2023-09-19T08:15:21;19.10;99.90
9901;DHT22;4989;48.772;9.154;2023-09-19T08:20:23;19.80;99.90
9901;DHT22;4989;48.772;9.154;2023-09-19T08:25:26;20.00;99.90
9901;DHT22;4989;48.772;9.154;2023-09-19T08:30:28;19.60;99.90
9901;DHT22;4989;48.772;9.154;2023-09-19T08:35:31;19.80;99.90
9901;DHT22;4989;48.772;9.154;2023-09-19T20:44:24;20.90;99.90
9901;DHT22;4989;48.772;9.154;2023-09-19T20:49:28;21.10;71.80
9901;DHT22;4989;48.772;9.154;2023-09-19T20:54:31;20.20;73.20
9901;DHT22;4989;48.772;9.154;2023-09-19T20:59:33;19.90;74.70
9901;DHT22;4989;48.772;9.154;2023-09-19T21:04:35;19.90;77.10
9901;DHT22;4989;48.772;9.154;2023-09-19T21:09:38;19.80;74.70
9901;DHT22;4989;48.772;9.154;2023-09-19T21:14:40;20.00;74.80
9901;DHT22;4989;48.772;9.154;2023-09-19T21:19:44;19.90;74.80
9901;DHT22;4989;48.772;9.154;2023-09-19T21:24:49;19.10;76.70
9901;DHT22;4989;48.772;9.154;2023-09-19T21:29:54;18.80;77.40
9901;DHT22;4989;48.772;9.154;2023-09-19T21:34:56;18.70;77.80
9901;DHT22;4989;48.772;9.154;2023-09-19T21:39:59;18.70;78.30
9901;DHT22;4989;48.772;9.154;2023-09-19T21:45:01;18.40;79.40
9901;DHT22;4989;48.772;9.154;2023-09-19T21:50:03;18.30;80.40
9901;DHT22;4989;48.772;9.154;2023-09-19T21:55:06;18.10;80.90
9901;DHT22;4989;48.772;9.154;2023-09-19T22:00:09;17.90;81.40
9901;DHT22;4989;48.772;9.154;2023-09-19T22:05:25;17.90;81.80
9901;DHT22;4989;48.772;9.154;2023-09-19T22:10:28;18.10;81.10
9901;DHT22;4989;48.772;9.154;2023-09-19T22:15:32;18.00;81.00
9901;DHT22;4989;48.772;9.154;2023-09-19T22:20:44;18.10;80.90
9901;DHT22;4989;48.772;9.154;2023-09-19T22:25:55;18.10;80.90
9901;DHT22;4989;48.772;9.154;2023-09-19T22:30:57;18.20;80.70
9901;DHT22;4989;48.772;9.154;2023-09-19T22:35:59;18.10;81.20
9901;DHT22;4989;48.772;9.154;2023-09-19T22:41:06;18.00;81.50
9901;DHT22;4989;48.772;9.154;2023-09-19T22:46:13;18.20;81.30
9901;DHT22;4989;48.772;9.154;2023-09-19T22:51:20;18.20;81.30
9901;DHT22;4989;48.772;9.154;2023-09-19T22:56:24;18.00;82.10
9901;DHT22;4989;48.772;9.154;2023-09-19T23:01:29;17.80;83.30
9901;DHT22;4989;48.772;9.154;2023-09-19T23:06:38;17.70;84.20
9901;DHT22;4989;48.772;9.154;2023-09-19T23:11:41;17.60;84.70
9901;DHT22;4989;48.772;9.154;2023-09-19T23:16:45;17.70;84.90
9901;DHT22;4989;48.772;9.154;2023-09-19T23:21:59;17.80;84.80
9901;DHT22;4989;48.772;9.154;2023-09-19T23:27:16;17.70;85.30
9901;DHT22;4989;48.772;9.154;2023-09-19T23:32:27;17.70;85.60
9901;DHT22;4989;48.772;9.154;2023-09-19T23:37:29;17.80;85.30
9901;DHT22;4989;48.772;9.154;2023-09-19T23:42:32;17.80;85.40
9901;DHT22;4989;48.772;9.154;2023-09-19T23:47:35;18.00;85.40
9901;DHT22;4989;48.772;9.154;2023-09-19T23:52:38;18.20;84.90
9901;DHT22;4989;48.772;9.154;2023-09-19T23:57:40;18.00;85.50
